Time;durP1;ratioP1;P1;durP2;ratioP2;P2;SDS_P1;SDS_P2;PMS_P1;PMS_P2;Temp;Humidity;BMP_temperature;BMP_pressure;BME280_temperature;BME280_humidity;BME280_pressure;Samples;Min_cycle;Max_cycle;Signal;HPM_P1;HPM_P2
2023/08/24 00:00:35;;;;;;;8.47;7.77;;;;;;;23.27;100.00;96620.06;5008021;28;105525;-76
2023/08/24 00:03:03;;;;;;;8.30;7.60;;;;;;;23.22;100.00;96618.28;5008918;28;101944;-76
2023/08/24 00:05:30;;;;;;;8.40;7.70;;;;;;;23.20;100.00;96614.31;5012861;28;102728;-79
2023/08/24 00:07:58;;;;;;;9.30;8.40;;;;;;;23.06;100.00;96613.72;5008915;28;102024;-78
2023/08/24 00:10:26;;;;;;;9.23;8.33;;;;;;;22.94;100.00;96610.88;5008796;28;105247;-78
2023/08/24 00:12:54;;;;;;;8.30;7.60;;;;;;;22.70;100.00;96610.59;5008081;28;105251;-77
2023/08/24 00:15:21;;;;;;;8.17;7.43;;;;;;;22.75;100.00;96611.22;5008534;28;101931;-77
2023/08/24 00:17:48;;;;;;;8.57;7.80;;;;;;;23.12;100.00;96615.13;5010081;28;102652;-77
2023/08/24 00:20:14;;;;;;;9.20;8.40;;;;;;;22.98;100.00;96612.59;5008039;28;103953;-77
2023/08/24 00:22:41;;;;;;;9.10;8.30;;;;;;;23.14;100.00;96608.25;5008638;28;102279;-80
2023/08/24 00:25:10;;;;;;;9.33;8.40;;;;;;;23.29;100.00;96607.75;5008540;28;104990;-80
2023/08/24 00:27:37;;;;;;;8.40;7.70;;;;;;;23.36;100.00;96607.22;5011514;28;105331;-80
2023/08/24 00:30:07;;;;;;;9.60;8.67;;;;;;;23.23;100.00;96602.81;5008406;28;104822;-79
2023/08/24 00:32:34;;;;;;;9.13;8.43;;;;;;;23.07;100.00;96591.69;5007951;28;105271;-76
2023/08/24 00:35:01;;;;;;;8.63;7.83;;;;;;;23.21;100.00;96605.06;5008448;28;102056;-76
2023/08/24 00:37:29;;;;;;;8.33;7.53;;;;;;;23.22;100.00;96601.25;5008390;28;104523;-76
2023/08/24 00:39:57;;;;;;;8.87;8.07;;;;;;;23.18;100.00;96597.56;5007657;28;105502;-76
2023/08/24 00:42:26;;;;;;;9.17;8.27;;;;;;;23.06;100.00;96592.00;5009817;28;101961;-76
2023/08/24 00:44:53;;;;;;;8.70;7.90;;;;;;;23.12;100.00;96605.09;5008208;28;105115;-76
2023/08/24 00:47:20;;;;;;;7.70;7.10;;;;;;;23.10;100.00;96595.66;5007424;28;105673;-77
2023/08/24 00:49:47;;;;;;;8.00;7.30;;;;;;;23.00;100.00;96590.59;5011552;28;101891;-77
2023/08/24 00:52:15;;;;;;;9.30;8.37;;;;;;;23.04;100.00;96594.25;5007564;28;105729;-77
2023/08/24 00:54:42;;;;;;;8.03;7.43;;;;;;;22.97;100.00;96589.31;5008369;28;102101;-77
2023/08/24 00:57:11;;;;;;;7.63;6.83;;;;;;;22.95;100.00;96585.34;5008150;28;105327;-77
2023/08/24 00:59:40;;;;;;;7.83;7.23;;;;;;;23.11;100.00;96589.91;5008106;28;105148;-77
2023/08/24 01:02:07;;;;;;;8.33;7.53;;;;;;;23.20;100.00;96587.19;5011827;28;102116;-77
2023/08/24 01:04:34;;;;;;;8.37;7.53;;;;;;;23.02;100.00;96588.34;5011740;28;105249;-77
2023/08/24 01:07:03;;;;;;;9.10;8.23;;;;;;;23.09;100.00;96585.91;5011241;28;103203;-77
2023/08/24 01:09:33;;;;;;;7.93;7.13;;;;;;;23.14;100.00;96585.75;5015094;28;101931;-77
2023/08/24 01:12:07;;;;;;;8.37;7.57;;;;;;;23.28;100.00;96594.50;5010964;28;105226;-77
2023/08/24 01:14:46;;;;;;;8.30;7.60;;;;;;;23.41;100.00;96582.63;5013184;28;101812;-77
2023/08/24 01:17:17;;;;;;;8.70;7.90;;;;;;;23.38;100.00;96584.06;5011655;28;105773;-77
2023/08/24 01:19:46;;;;;;;8.43;7.63;;;;;;;23.24;100.00;96580.00;5010728;28;105370;-77
2023/08/24 01:22:34;;;;;;;7.97;7.30;;;;;;;22.57;100.00;96573.63;5011415;28;102040;-78
2023/08/24 01:25:07;;;;;;;6.90;6.37;;;;;;;22.56;100.00;96572.03;5011402;28;105178;-78
2023/08/24 01:27:37;;;;;;;6.70;6.20;;;;;;;22.68;100.00;96580.31;5010626;28;105445;-78
2023/08/24 01:30:05;;;;;;;7.03;6.43;;;;;;;22.61;100.00;96585.44;5011212;28;102059;-77
2023/08/24 01:32:32;;;;;;;7.50;6.80;;;;;;;22.46;100.00;96583.22;5014199;28;105006;-77
2023/08/24 01:35:00;;;;;;;7.87;6.70;;;;;;;22.25;100.00;96587.66;5011276;28;102026;-78
2023/08/24 01:37:28;;;;;;;6.90;6.30;;;;;;;22.31;100.00;96589.09;5011138;28;105683;-78
2023/08/24 01:40:05;;;;;;;7.43;6.73;;;;;;;22.51;100.00;96591.19;5010372;28;105423;-78
2023/08/24 01:42:36;;;;;;;7.60;7.00;;;;;;;22.60;100.00;96589.22;5011236;28;101951;-77
2023/08/24 01:45:08;;;;;;;7.07;6.47;;;;;;;22.79;100.00;96589.69;5011205;28;104951;-76
2023/08/24 01:47:37;;;;;;;7.67;7.07;;;;;;;22.69;100.00;96585.41;5010079;28;105198;-76
2023/08/24 01:50:05;;;;;;;7.27;6.60;;;;;;;22.45;100.00;96581.63;5011036;28;101984;-77
2023/08/24 01:52:35;;;;;;;6.80;6.30;;;;;;;22.34;100.00;96574.91;5011057;28;105345;-77
2023/08/24 01:55:03;;;;;;;6.73;6.13;;;;;;;;;;5013538;28;104118;-76
2023/08/24 01:57:30;;;;;;;7.23;6.57;;;;;;;22.55;100.00;96581.28;5012319;28;101676;-77
2023/08/24 01:59:57;;;;;;;7.00;6.33;;;;;;;22.61;100.00;96580.00;5010128;28;105498;-77
2023/08/24 02:02:26;;;;;;;8.30;7.50;;;;;;;22.55;100.00;96581.28;5010753;28;101926;-77
2023/08/24 02:04:53;;;;;;;7.17;6.67;;;;;;;22.44;100.00;96569.16;5010868;28;104782;-77
2023/08/24 02:07:22;;;;;;;7.67;6.27;;;;;;;22.40;100.00;96566.28;5010118;28;105644;-79
2023/08/24 02:09:51;;;;;;;6.63;6.13;;;;;;;22.40;100.00;96562.78;5010405;28;102034;-80
2023/08/24 02:12:18;;;;;;;7.13;6.53;;;;;;;22.37;100.00;96568.84;5010551;28;105599;-80
2023/08/24 02:14:45;;;;;;;6.80;6.30;;;;;;;22.09;100.00;96554.03;5010134;28;105018;-80
2023/08/24 02:17:12;;;;;;;6.63;6.03;;;;;;;21.96;100.00;96563.91;5013954;28;102017;-80
2023/08/24 02:19:41;;;;;;;7.57;6.70;;;;;;;22.17;100.00;96558.66;5009923;28;105386;-80
2023/08/24 02:22:09;;;;;;;7.33;6.70;;;;;;;22.36;100.00;96564.53;5010604;28;102065;-80
2023/08/24 02:24:38;;;;;;;8.60;6.70;;;;;;;22.45;100.00;96565.34;5010561;28;103474;-80
2023/08/24 02:27:05;;;;;;;7.47;6.80;;;;;;;22.51;100.00;96562.13;5009687;28;104540;-80
2023/08/24 02:29:32;;;;;;;7.23;6.53;;;;;;;22.52;100.00;96554.81;5010313;28;101929;-77
2023/08/24 02:32:02;;;;;;;7.87;6.47;;;;;;;22.58;100.00;96550.81;5010377;28;104889;-76
2023/08/24 02:34:29;;;;;;;8.83;8.07;;;;;;;22.55;100.00;96551.47;5009982;28;105079;-76
2023/08/24 02:36:59;;;;;;;7.37;6.77;;;;;;;22.61;100.00;96553.69;5010223;28;101986;-76
2023/08/24 02:39:26;;;;;;;7.50;6.90;;;;;;;22.66;100.00;96553.50;5012967;28;104856;-76
2023/08/24 02:41:53;;;;;;;6.83;6.33;;;;;;;22.67;100.00;96555.09;5010276;28;101932;-76
2023/08/24 02:44:20;;;;;;;7.83;7.13;;;;;;;22.78;100.00;96559.06;5010097;28;105202;-79
2023/08/24 02:46:49;;;;;;;8.00;7.30;;;;;;;22.79;100.00;96554.44;5008950;28;105822;-79
2023/08/24 02:49:18;;;;;;;6.63;6.03;;;;;;;22.64;100.00;96553.03;5009989;28;101969;-79
2023/08/24 02:51:45;;;;;;;6.97;6.37;;;;;;;22.70;100.00;96551.75;5010174;28;104771;-79
2023/08/24 02:54:13;;;;;;;6.90;6.40;;;;;;;22.48;100.00;96548.44;5009416;28;104307;-78
2023/08/24 02:56:40;;;;;;;8.17;7.23;;;;;;;22.08;100.00;96547.03;5010046;28;102240;-78
2023/08/24 02:59:07;;;;;;;7.80;7.10;;;;;;;21.79;100.00;96553.06;5009947;28;105235;-78
2023/08/24 03:01:38;;;;;;;7.27;6.63;;;;;;;21.61;100.00;96556.81;5012546;28;102081;-78
2023/08/24 03:04:05;;;;;;;6.87;6.23;;;;;;;21.75;100.00;96556.72;5009973;28;104989;-78
2023/08/24 03:06:32;;;;;;;7.07;6.37;;;;;;;21.79;100.00;96563.09;5009391;28;105281;-74
2023/08/24 03:09:03;;;;;;;6.93;6.33;;;;;;;21.83;100.00;96558.63;5009732;28;102266;-74
2023/08/24 03:11:32;;;;;;;6.37;5.77;;;;;;;21.72;100.00;96558.16;5009883;28;105414;-73
2023/08/24 03:13:59;;;;;;;6.83;6.23;;;;;;;21.89;100.00;96558.16;5009164;28;105507;-73
2023/08/24 03:16:27;;;;;;;6.80;6.20;;;;;;;21.89;100.00;96555.47;5009677;28;101999;-73
2023/08/24 03:18:54;;;;;;;7.13;6.53;;;;;;;21.80;100.00;96551.94;5009755;28;105190;-73
2023/08/24 03:21:21;;;;;;;6.17;5.77;;;;;;;21.99;100.00;96547.03;5012207;28;105554;-72
2023/08/24 03:23:48;;;;;;;6.40;5.80;;;;;;;21.97;100.00;96541.09;5008652;28;105498;-72
2023/08/24 03:26:15;;;;;;;6.70;6.20;;;;;;;22.07;100.00;96537.31;5010321;28;102791;-73
2023/08/24 03:28:44;;;;;;;6.40;5.90;;;;;;;22.13;100.00;96534.09;5009281;28;102059;-73
2023/08/24 03:31:10;;;;;;;7.20;6.60;;;;;;;22.02;100.00;96530.13;5009543;28;105063;-73
2023/08/24 03:33:37;;;;;;;7.37;6.60;;;;;;;21.77;100.00;96532.81;5008808;28;105535;-79
2023/08/24 03:36:05;;;;;;;8.57;6.10;;;;;;;21.92;100.00;96529.66;5009603;28;101893;-76
2023/08/24 03:38:32;;;;;;;7.10;6.40;;;;;;;22.01;100.00;96535.88;5009248;28;105434;-74
2023/08/24 03:41:02;;;;;;;7.20;6.50;;;;;;;22.03;100.00;96526.31;5008565;28;105060;-79
2023/08/24 03:43:30;;;;;;;9.00;7.93;;;;;;;21.93;100.00;96526.63;5012731;28;102037;-74
2023/08/24 03:45:58;;;;;;;7.47;6.70;;;;;;;21.80;100.00;96522.16;5008773;28;105937;-74
2023/08/24 03:48:25;;;;;;;7.50;6.80;;;;;;;21.70;100.00;96521.69;5010200;28;101808;-74
2023/08/24 03:50:55;;;;;;;8.07;6.70;;;;;;;21.79;100.00;96525.19;5009222;28;105253;-76
2023/08/24 03:53:22;;;;;;;8.17;7.50;;;;;;;21.54;100.00;96517.81;5008494;28;105527;-76
2023/08/24 03:55:49;;;;;;;7.43;6.67;;;;;;;21.90;100.00;96527.25;5009209;28;102185;-76
2023/08/24 03:58:19;;;;;;;7.57;6.97;;;;;;;21.96;100.00;96525.97;5008966;28;105268;-76
2023/08/24 04:00:47;;;;;;;7.40;6.70;;;;;;;22.01;100.00;96519.63;5008535;28;105262;-80
2023/08/24 04:03:15;;;;;;;7.77;7.17;;;;;;;21.98;100.00;96526.47;5009033;28;102776;-80
2023/08/24 04:05:42;;;;;;;8.57;7.70;;;;;;;21.80;100.00;96527.56;5013042;28;102497;-80
2023/08/24 04:08:09;;;;;;;8.40;7.27;;;;;;;21.76;100.00;96523.13;5008887;28;102040;-75
2023/08/24 04:10:38;;;;;;;7.93;7.30;;;;;;;21.72;100.00;96524.84;5008809;28;103816;-75
2023/08/24 04:13:05;;;;;;;8.10;7.30;;;;;;;21.76;100.00;96529.34;5008368;28;105278;-78
2023/08/24 04:15:32;;;;;;;8.13;7.27;;;;;;;21.58;100.00;96529.59;5008874;28;102188;-82
2023/08/24 04:17:59;;;;;;;11.03;8.63;;;;;;;21.32;100.00;96526.84;5008855;28;105334;-77
2023/08/24 04:20:27;;;;;;;9.37;8.53;;;;;;;21.23;100.00;96528.72;5008244;28;105716;-72
2023/08/24 04:22:56;;;;;;;8.97;8.07;;;;;;;21.30;100.00;96528.28;5008402;28;101960;-73
2023/08/24 04:25:23;;;;;;;8.63;7.93;;;;;;;21.33;100.00;96531.16;5008810;28;105303;-73
2023/08/24 04:27:50;;;;;;;8.70;7.90;;;;;;;21.56;100.00;96542.63;5011348;28;105121;-72
2023/08/24 04:30:21;;;;;;;11.00;9.80;;;;;;;21.39;100.00;96531.78;5008387;28;105887;-73
2023/08/24 04:32:48;;;;;;;10.90;9.80;;;;;;;21.07;100.00;96534.88;5007930;28;105127;-73
2023/08/24 04:35:16;;;;;;;8.63;7.83;;;;;;;21.27;100.00;96537.00;5008873;28;102079;-72
2023/08/24 04:37:44;;;;;;;10.03;9.13;;;;;;;21.43;100.00;96538.16;5010418;28;102987;-73
2023/08/24 04:40:12;;;;;;;10.07;9.07;;;;;;;21.42;100.00;96542.00;5009981;28;103233;-73
2023/08/24 04:42:39;;;;;;;9.37;8.43;;;;;;;21.40;100.00;96541.47;5009292;28;101845;-72
2023/08/24 04:45:07;;;;;;;8.63;7.90;;;;;;;21.62;100.00;96544.06;5009611;28;105385;-77
2023/08/24 04:47:34;;;;;;;8.50;7.13;;;;;;;21.67;100.00;96543.94;5008229;28;105262;-76
2023/08/24 04:50:01;;;;;;;8.70;7.80;;;;;;;21.74;100.00;96549.72;5012742;28;102027;-77
2023/08/24 04:52:28;;;;;;;9.90;9.07;;;;;;;21.64;100.00;96545.34;5008375;28;105611;-76
2023/08/24 04:54:56;;;;;;;8.83;8.13;;;;;;;21.57;100.00;96542.31;5009073;28;101957;-76
2023/08/24 04:57:23;;;;;;;9.27;8.37;;;;;;;21.64;100.00;96544.56;5009158;28;103888;-72
2023/08/24 04:59:50;;;;;;;8.63;7.93;;;;;;;21.95;100.00;96550.66;5008323;28;105405;-72
2023/08/24 05:02:17;;;;;;;8.73;8.03;;;;;;;22.08;100.00;96544.31;5008879;28;102002;-72
2023/08/24 05:04:44;;;;;;;9.03;8.23;;;;;;;22.11;100.00;96538.25;5008875;28;105220;-72
2023/08/24 05:07:11;;;;;;;9.40;8.57;;;;;;;22.16;100.00;96540.78;5008368;28;105558;-72
2023/08/24 05:09:38;;;;;;;9.40;8.50;;;;;;;22.12;100.00;96543.34;5013594;28;101904;-75
2023/08/24 05:12:06;;;;;;;10.10;9.20;;;;;;;22.23;100.00;96541.91;5008190;28;105142;-75
2023/08/24 05:14:34;;;;;;;12.37;11.17;;;;;;;22.28;100.00;96536.31;5008938;28;101892;-75
2023/08/24 05:17:01;;;;;;;10.27;9.27;;;;;;;22.38;100.00;96546.03;5007756;28;105252;-75
2023/08/24 05:19:28;;;;;;;10.57;9.57;;;;;;;22.37;100.00;96544.44;5007888;28;105563;-75
2023/08/24 05:21:55;;;;;;;10.60;9.60;;;;;;;22.39;100.00;96547.66;5008635;28;102042;-75
2023/08/24 05:24:22;;;;;;;11.10;10.00;;;;;;;22.35;100.00;96542.03;5008765;28;104850;-75
2023/08/24 05:26:48;;;;;;;11.47;10.47;;;;;;;22.39;100.00;96550.34;5007082;28;105237;-75
2023/08/24 05:29:17;;;;;;;10.90;10.00;;;;;;;22.34;100.00;96554.00;5007713;28;102008;-75
2023/08/24 05:31:43;;;;;;;10.80;9.90;;;;;;;22.51;100.00;96551.28;5010468;28;105615;-75
2023/08/24 05:34:11;;;;;;;10.00;9.20;;;;;;;22.53;100.00;96550.97;5008377;28;102073;-75
2023/08/24 05:36:37;;;;;;;11.33;10.07;;;;;;;22.68;100.00;96547.78;5008598;28;105741;-75
2023/08/24 05:39:04;;;;;;;10.73;9.83;;;;;;;22.77;100.00;96548.56;5007147;28;103917;-75
2023/08/24 05:41:31;;;;;;;10.80;9.83;;;;;;;22.91;100.00;96549.94;5008404;28;102275;-75
2023/08/24 05:43:58;;;;;;;10.97;10.10;;;;;;;23.03;100.00;96543.81;5008356;28;105339;-75
2023/08/24 05:46:26;;;;;;;10.57;9.57;;;;;;;23.15;100.00;96546.66;5008583;28;104326;-75
2023/08/24 05:48:53;;;;;;;10.73;9.90;;;;;;;23.22;100.00;96545.03;5011632;28;102067;-75
2023/08/24 05:51:20;;;;;;;10.83;9.93;;;;;;;23.22;100.00;96555.88;5011599;28;105642;-75
2023/08/24 05:53:47;;;;;;;10.80;9.87;;;;;;;23.43;100.00;96553.25;5014367;28;104211;-75
2023/08/24 05:56:14;;;;;;;10.77;9.87;;;;;;;23.47;100.00;96554.16;5011643;28;105293;-75
2023/08/24 05:58:44;;;;;;;11.47;10.47;;;;;;;23.51;100.00;96549.69;5010668;28;105179;-75
2023/08/24 06:01:17;;;;;;;11.63;10.73;;;;;;;23.45;100.00;96551.81;5010482;28;102092;-75
2023/08/24 06:03:45;;;;;;;12.23;11.20;;;;;;;23.49;100.00;96546.50;5010379;28;105489;-75
2023/08/24 06:06:12;;;;;;;11.80;10.03;;;;;;;23.54;100.00;96547.09;5009984;28;105510;-75
2023/08/24 06:08:39;;;;;;;9.50;8.67;;;;;;;23.00;100.00;96545.25;5010361;28;102038;-75
2023/08/24 06:11:06;;;;;;;9.23;8.33;;;;;;;23.23;100.00;96540.41;5011511;28;104864;-75
2023/08/24 06:13:33;;;;;;;9.43;8.63;;;;;;;23.36;100.00;96525.81;5010723;28;105725;-75
2023/08/24 06:16:01;;;;;;;9.50;8.70;;;;;;;23.52;100.00;96533.06;5014858;28;102011;-75
2023/08/24 06:18:28;;;;;;;10.33;9.33;;;;;;;23.47;100.00;96532.44;5010343;28;105271;-75
2023/08/24 06:20:57;;;;;;;12.17;10.97;;;;;;;23.31;100.00;96536.84;5010768;28;102341;-75
2023/08/24 06:23:23;;;;;;;11.77;10.57;;;;;;;23.48;100.00;96534.06;5010359;28;104994;-76
2023/08/24 06:25:50;;;;;;;12.57;11.30;;;;;;;23.13;100.00;96538.84;5009906;28;103813;-75
2023/08/24 06:28:18;;;;;;;12.80;10.77;;;;;;;23.49;100.00;96532.94;5010184;28;101942;-75
2023/08/24 06:30:46;;;;;;;12.70;11.20;;;;;;;23.59;100.00;96529.84;5010324;28;105119;-75
2023/08/24 06:33:13;;;;;;;14.73;11.77;;;;;;;23.62;100.00;96526.44;5009392;28;105513;-75
2023/08/24 06:35:41;;;;;;;13.90;12.50;;;;;;;23.54;100.00;96532.75;5009492;28;102057;-75
2023/08/24 06:38:09;;;;;;;14.67;13.23;;;;;;;23.31;100.00;96532.22;5012305;28;104968;-75
2023/08/24 06:40:36;;;;;;;14.70;13.30;;;;;;;23.41;100.00;96531.03;5009317;28;101896;-75
2023/08/24 06:43:04;;;;;;;16.03;14.53;;;;;;;23.38;100.00;96529.78;5009070;28;105259;-75
2023/08/24 06:45:33;;;;;;;16.20;14.73;;;;;;;23.38;100.00;96537.94;5008730;28;105269;-75
2023/08/24 06:48:02;;;;;;;15.03;13.63;;;;;;;23.59;100.00;96527.91;5009059;28;102196;-75
2023/08/24 06:50:29;;;;;;;15.03;13.80;;;;;;;23.57;100.00;96526.63;5009191;28;105342;-75
2023/08/24 06:52:56;;;;;;;14.30;13.00;;;;;;;23.71;100.00;96522.53;5008735;28;105893;-75
2023/08/24 06:55:24;;;;;;;15.47;14.17;;;;;;;23.78;100.00;96522.03;5010387;28;101855;-75
2023/08/24 06:57:51;;;;;;;14.90;13.70;;;;;;;23.79;100.00;96520.91;5008967;28;105273;-75
2023/08/24 07:00:19;;;;;;;14.17;12.97;;;;;;;23.92;100.00;96522.59;5011813;28;105539;-75
2023/08/24 07:02:47;;;;;;;13.27;12.03;;;;;;;24.23;100.00;96506.66;5008709;28;105459;-75
2023/08/24 07:05:14;;;;;;;13.13;12.13;;;;;;;24.46;100.00;96510.59;5008426;28;104103;-75
2023/08/24 07:07:44;;;;;;;13.73;12.53;;;;;;;24.44;100.00;96507.41;5009274;28;102069;-75
2023/08/24 07:10:13;;;;;;;14.10;12.90;;;;;;;24.56;100.00;96505.53;5008937;28;104998;-75
2023/08/24 07:12:45;;;;;;;12.43;11.27;;;;;;;24.73;100.00;96499.16;5008369;28;105165;-75
2023/08/24 07:15:15;;;;;;;14.50;13.00;;;;;;;24.71;100.00;96501.41;5008729;28;101852;-75
2023/08/24 07:17:48;;;;;;;12.60;11.50;;;;;;;25.03;100.00;96495.09;5008775;28;105119;-75
2023/08/24 07:20:19;;;;;;;12.97;11.87;;;;;;;25.27;100.00;96493.19;5011635;28;105054;-75
2023/08/24 07:22:46;;;;;;;13.77;12.47;;;;;;;25.39;100.00;96495.13;5008612;28;104896;-75
2023/08/24 07:25:15;;;;;;;12.90;11.70;;;;;;;25.39;100.00;96495.13;5008121;28;105537;-75
2023/08/24 07:27:43;;;;;;;13.20;11.90;;;;;;;25.61;100.00;96494.66;5008588;28;102212;-75
2023/08/24 07:30:14;;;;;;;13.20;11.93;;;;;;;25.46;100.00;96487.16;5008361;28;105167;-75
2023/08/24 07:32:47;;;;;;;13.30;12.00;;;;;;;25.51;100.00;96493.16;5008136;28;105528;-76
2023/08/24 07:35:19;;;;;;;12.23;11.23;;;;;;;25.63;100.00;96489.63;5009516;28;102195;-75
2023/08/24 07:37:49;;;;;;;11.90;10.80;;;;;;;25.77;100.00;96482.69;5008464;28;105844;-76
2023/08/24 07:40:19;;;;;;;12.77;11.47;;;;;;;25.86;100.00;96482.53;5008017;28;105316;-75
2023/08/24 07:42:50;;;;;;;13.00;11.70;;;;;;;25.77;100.00;96481.91;5011645;28;101989;-75
2023/08/24 07:45:19;;;;;;;14.20;12.83;;;;;;;25.63;100.00;96481.47;5008870;28;105030;-75
2023/08/24 07:47:46;;;;;;;13.40;12.10;;;;;;;25.87;100.00;96476.75;5008087;28;101940;-76
2023/08/24 07:50:16;;;;;;;12.17;11.13;;;;;;;26.02;100.00;96476.06;5008325;28;104127;-76
2023/08/24 07:52:43;;;;;;;12.50;11.23;;;;;;;26.26;100.00;96467.00;5008675;28;103006;-75
2023/08/24 07:55:15;;;;;;;12.20;10.93;;;;;;;26.48;100.00;96469.16;5008469;28;102005;-75
2023/08/24 07:57:42;;;;;;;14.60;10.60;;;;;;;26.67;100.00;96463.81;5008183;28;105047;-75
2023/08/24 08:00:13;;;;;;;12.77;11.30;;;;;;;26.67;100.00;96469.28;5007586;28;105287;-75
2023/08/24 08:02:43;;;;;;;13.73;10.17;;;;;;;26.95;100.00;96464.53;5007560;28;101916;-75
2023/08/24 08:05:13;;;;;;;12.43;11.13;;;;;;;27.19;100.00;96464.38;5010933;28;105744;-75
2023/08/24 08:07:40;;;;;;;12.03;10.53;;;;;;;27.31;100.00;96462.31;5007753;28;101906;-75
2023/08/24 08:10:08;;;;;;;11.20;10.00;;;;;;;27.25;100.00;96460.22;5007465;28;104898;-75
2023/08/24 08:12:35;;;;;;;10.97;9.97;;;;;;;27.29;100.00;96456.44;5007410;28;105250;-75
2023/08/24 08:15:08;;;;;;;12.23;9.30;;;;;;;26.93;100.00;96456.72;5007701;28;101959;-75
2023/08/24 08:17:38;;;;;;;10.63;8.93;;;;;;;27.35;100.00;96455.00;5008880;28;105114;-75
2023/08/24 08:20:06;;;;;;;9.20;8.30;;;;;;;27.63;100.00;96454.84;5008175;28;104322;-75
2023/08/24 08:22:39;;;;;;;8.30;7.50;;;;;;;27.88;100.00;96459.72;5008822;28;103037;-75
2023/08/24 08:25:10;;;;;;;8.87;7.97;;;;;;;28.12;100.00;96445.75;5008789;28;105503;-75
2023/08/24 08:27:45;;;;;;;8.40;7.73;;;;;;;28.29;100.00;96441.81;5011475;28;105149;-76
2023/08/24 08:30:20;;;;;;;8.27;7.57;;;;;;;28.37;100.00;96443.50;5008643;28;103852;-76
2023/08/24 08:32:48;;;;;;;8.33;7.53;;;;;;;28.43;100.00;96442.88;5008042;28;105145;-76
2023/08/24 08:35:20;;;;;;;8.50;7.23;;;;;;;28.47;100.00;96437.47;5009802;28;101855;-76
2023/08/24 08:37:51;;;;;;;7.73;7.10;;;;;;;28.68;100.00;96424.97;5008529;28;105711;-75
2023/08/24 08:40:21;;;;;;;8.63;7.50;;;;;;;28.95;100.00;96425.78;5009510;28;102877;-75
2023/08/24 08:42:51;;;;;;;7.90;7.10;;;;;;;29.13;100.00;96432.38;5008272;28;102083;-75
2023/08/24 08:45:27;;;;;;;10.52;7.78;;;;;;;28.86;100.00;96428.00;5008485;28;105368;-75
2023/08/24 08:48:00;;;;;;;8.27;7.50;;;;;;;28.78;100.00;96429.81;5007428;28;105438;-75
2023/08/24 08:50:28;;;;;;;7.68;6.90;;;;;;;29.14;100.00;96425.72;5013385;28;102144;-75
2023/08/24 08:52:55;;;;;;;7.88;7.10;;;;;;;29.30;100.00;96420.88;5007696;28;104424;-75
2023/08/24 08:55:26;;;;;;;7.20;6.60;;;;;;;29.34;100.00;96414.31;5008367;28;102255;-76
2023/08/24 08:57:58;;;;;;;6.85;6.20;;;;;;;29.56;100.00;96413.50;5008228;28;104963;-75
2023/08/24 09:00:28;;;;;;;7.13;6.43;;;;;;;29.72;100.00;96418.78;5007730;28;104850;-75
2023/08/24 09:02:58;;;;;;;7.25;6.60;;;;;;;29.90;100.00;96411.56;5007912;28;102138;-75
2023/08/24 09:05:31;;;;;;;6.68;6.00;;;;;;;30.09;100.00;96405.91;5009627;28;102978;-75
2023/08/24 09:08:05;;;;;;;7.40;6.47;;;;;;;29.85;100.00;96411.91;5007614;28;105181;-76
2023/08/24 09:10:32;;;;;;;6.90;6.20;;;;;;;30.02;100.00;96403.09;5008174;28;102307;-76
2023/08/24 09:12:59;;;;;;;7.22;6.03;;;;;;;30.16;100.00;96403.28;5010652;28;103787;-76
2023/08/24 09:15:27;;;;;;;6.88;6.25;;;;;;;30.27;100.00;96393.22;5008106;28;101922;-76
2023/08/24 09:17:56;;;;;;;6.43;5.90;;;;;;;30.47;100.00;96402.84;5008235;28;104804;-76
2023/08/24 09:20:28;;;;;;;7.55;6.53;;;;;;;30.33;100.00;96399.94;5007907;28;105101;-76
2023/08/24 09:22:57;;;;;;;6.50;5.90;;;;;;;30.41;100.00;96399.63;5011565;28;102048;-76
2023/08/24 09:25:27;;;;;;;7.63;6.78;;;;;;;30.59;100.00;96397.88;5011498;28;105102;-76
2023/08/24 09:28:01;;;;;;;7.35;6.40;;;;;;;30.44;100.00;96398.88;5010763;28;104647;-76
2023/08/24 09:47:34;;;;;;;7.53;6.30;;;;;;;31.49;100.00;96388.00;796338;22;104662;-74
2023/08/24 09:50:03;;;;;;;6.70;6.10;;;;;;;31.76;100.00;96386.59;4949162;28;105877;-75
2023/08/24 09:52:33;;;;;;;6.50;5.93;;;;;;;31.78;100.00;96376.78;4968176;28;101992;-75
2023/08/24 09:55:05;;;;;;;8.55;7.03;;;;;;;32.08;100.00;96380.03;4951683;28;105273;-75
2023/08/24 09:57:37;;;;;;;7.72;6.13;;;;;;;32.28;100.00;96375.81;4954887;28;105099;-75
2023/08/24 10:00:09;;;;;;;6.75;5.75;;;;;;;32.47;100.00;96367.16;4953486;28;103012;-75
2023/08/24 10:02:38;;;;;;;9.27;5.88;;;;;;;32.62;100.00;96366.00;4950803;28;104306;-75
2023/08/24 10:05:08;;;;;;;7.55;6.10;;;;;;;32.50;100.00;96357.34;4951492;28;101976;-75
2023/08/24 10:07:38;;;;;;;6.65;6.05;;;;;;;32.39;100.00;96356.53;4951774;28;105106;-75
2023/08/24 10:10:13;;;;;;;6.57;5.97;;;;;;;32.63;100.00;96364.06;4951085;28;105412;-75
2023/08/24 10:12:46;;;;;;;7.05;5.88;;;;;;;32.61;100.00;96353.44;4952383;28;102017;-75
2023/08/24 10:15:13;;;;;;;6.38;5.78;;;;;;;32.63;100.00;96353.03;4951744;28;104842;-75
2023/08/24 10:17:40;;;;;;;7.60;5.35;;;;;;;32.73;100.00;96352.22;4951266;28;105402;-75
2023/08/24 10:20:11;;;;;;;6.10;5.28;;;;;;;33.30;100.00;96345.56;4955211;28;101976;-75
2023/08/24 10:22:40;;;;;;;6.10;5.50;;;;;;;33.54;100.00;96344.69;4950787;28;105159;-75
2023/08/24 10:25:09;;;;;;;6.68;5.57;;;;;;;33.56;100.00;96347.84;4955432;28;102216;-75
2023/08/24 10:27:36;;;;;;;5.90;5.32;;;;;;;33.36;100.00;96335.69;4971977;28;102994;-75
2023/08/24 10:30:03;;;;;;;6.18;5.15;;;;;;;33.26;100.00;96328.19;4969944;28;105842;-75
2023/08/24 10:32:37;;;;;;;6.47;5.38;;;;;;;33.60;100.00;96323.78;4970264;28;102078;-74
2023/08/24 10:35:05;;;;;;;6.15;5.55;;;;;;;33.40;100.00;96314.41;4964220;28;105463;-74
2023/08/24 10:37:34;;;;;;;5.93;5.07;;;;;;;33.53;100.00;96308.06;4966509;28;104447;-74
2023/08/24 10:40:02;;;;;;;5.78;5.10;;;;;;;33.63;100.00;96310.00;4970667;28;101892;-74
2023/08/24 10:42:45;;;;;;;6.15;5.22;;;;;;;33.76;100.00;96315.84;4974239;28;105103;-75
2023/08/24 10:45:24;;;;;;;5.35;4.90;;;;;;;34.22;100.00;96316.41;4987508;28;103190;-74
2023/08/24 10:47:53;;;;;;;5.93;5.05;;;;;;;33.84;100.00;96306.38;4962884;28;104222;-74
2023/08/24 10:50:28;;;;;;;5.45;4.95;;;;;;;33.60;100.00;96307.22;4953658;28;105885;-75
2023/08/24 10:52:59;;;;;;;4.95;4.60;;;;;;;34.12;100.00;96295.97;4952783;28;102239;-74
2023/08/24 10:55:29;;;;;;;6.30;4.80;;;;;;;34.03;100.00;96294.81;4970778;28;105545;-75
2023/08/24 10:58:01;;;;;;;7.15;4.88;;;;;;;34.11;100.00;96290.84;4965759;28;102920;-75
2023/08/24 11:00:33;;;;;;;5.88;4.75;;;;;;;34.23;100.00;96290.38;4968167;28;101943;-75
2023/08/24 11:03:03;;;;;;;5.38;4.50;;;;;;;34.18;100.00;96277.00;4972456;28;103008;-75
2023/08/24 11:05:36;;;;;;;4.90;4.40;;;;;;;34.58;100.00;96273.53;4973380;28;105304;-75
2023/08/24 11:08:07;;;;;;;6.40;4.60;;;;;;;34.43;100.00;96261.06;4984590;28;104948;-76
2023/08/24 11:10:53;;;;;;;5.45;4.57;;;;;;;34.45;100.00;96262.22;4952185;28;102906;-75
2023/08/24 11:13:23;;;;;;;4.78;4.38;;;;;;;34.55;100.00;96255.03;4968135;28;102053;-75
2023/08/24 11:15:58;;;;;;;5.25;4.70;;;;;;;34.69;100.00;96255.69;4969646;28;105518;-75
2023/08/24 11:18:29;;;;;;;4.85;3.97;;;;;;;34.75;100.00;96258.78;4963844;28;105194;-75
2023/08/24 11:21:02;;;;;;;5.90;4.55;;;;;;;34.80;100.00;96252.84;4970704;28;102107;-75
2023/08/24 11:23:39;;;;;;;5.35;4.85;;;;;;;34.77;100.00;96248.16;4970487;28;103856;-74
2023/08/24 11:26:06;;;;;;;5.60;4.45;;;;;;;34.49;100.00;96243.63;4969906;28;104098;-75
2023/08/24 11:28:39;;;;;;;5.65;4.63;;;;;;;34.70;100.00;96239.91;4972513;28;102290;-76
2023/08/24 11:31:10;;;;;;;4.85;4.35;;;;;;;34.55;100.00;96232.94;4950453;28;105202;-76
2023/08/24 11:33:40;;;;;;;6.97;4.47;;;;;;;34.77;100.00;96234.34;4955823;28;102018;-78
2023/08/24 11:36:13;;;;;;;4.82;4.30;;;;;;;34.79;100.00;96229.97;4977599;28;104154;-78
2023/08/24 11:38:44;;;;;;;5.40;4.50;;;;;;;34.75;100.00;96218.13;4950516;28;105209;-78